Costa Favolosa — ICPK — position and weather

sailwx.info

Track history (hours):
 
Tides and Currents Weather Stations Pressure Air Temp Water Temp Dewpoint Dewpoint Depression Visibility Wind Speed Wind Dir Waves Ship Positions

Costa Favolosa

Last reported at 2019-Nov-20 08:29 UTC. Time now 2019-Nov-20 09:53 UTC.
Position N 44°19' E 008°29'.

Length 291 m; draft 8.3 m.

Type: Passenger vessel. MMSI: 247311100.

Date/timePositionNaut miles runAvg speedWind from/ knotsBaromVisibWave heightAir tempDewpointWater temp
2019-Nov-20 08:29N 44°19' E 008°29'0 0.0
2019-Nov-20 07:31N 44°19' E 008°29'2 2.1
2019-Nov-20 06:31N 44°18' E 008°32'3618.0
2019-Nov-20 04:30N 43°47' E 008°05'2020.3
2019-Nov-20 03:30N 43°34' E 007°45'2121.2
2019-Nov-20 02:31N 43°19' E 007°23'21421.1
2019-Nov-19 16:21N 41°33' E 003°11'3820.5
2019-Nov-19 14:30N 41°17' E 002°26'12 2.1
2019-Nov-19 08:45N 41°21' E 002°10'16 3.7
2019-Nov-19 04:30N 41°06' E 002°06'35715.5
2019-Nov-18 05:26N 36°20' W 002°28'9820.0
2019-Nov-18 00:31N 36°04' W 004°28'2120.8
2019-Nov-17 23:30N 36°02' W 004°54'1020.3
2019-Nov-17 23:00N 36°00' W 005°06'232 8.8
2019-Nov-16 20:31N 37°28' W 009°34'2221.6
2019-Nov-16 19:31N 37°50' W 009°31'1121.2
2019-Nov-16 19:01N 38°00' W 009°29'1121.3
2019-Nov-16 18:31N 38°11' W 009°28'2121.2
2019-Nov-16 17:31N 38°32' W 009°25'917.3
2019-Nov-16 17:01N 38°40' W 009°19'10 9.8
2019-Nov-16 16:01N 38°42' W 009°07'0 0.4
2019-Nov-16 15:30N 38°43' W 009°08'0 0.0
2019-Nov-16 07:29N 38°43' W 009°08'0 0.0
2019-Nov-16 06:30N 38°43' W 009°08'0 0.0
2019-Nov-16 03:30N 38°43' W 009°08'0 0.0
2019-Nov-16 03:00N 38°43' W 009°08'0 0.0
2019-Nov-16 02:30N 38°43' W 009°08'0 0.0
2019-Nov-15 22:29N 38°43' W 009°08'0 0.0
2019-Nov-15 19:58N 38°43' W 009°08'0 0.0
2019-Nov-15 18:58N 38°43' W 009°08'0 0.0
2019-Nov-15 17:58N 38°43' W 009°08'0 0.0
2019-Nov-15 15:30N 38°43' W 009°08'0 0.0
2019-Nov-15 13:30N 38°43' W 009°08'0 0.0
2019-Nov-15 11:58N 38°43' W 009°08'0 0.0
2019-Nov-15 09:30N 38°43' W 009°08'0 0.0
2019-Nov-15 08:29N 38°43' W 009°08'0 0.0
2019-Nov-15 06:58N 38°43' W 009°08'0 0.0
2019-Nov-15 04:28N 38°43' W 009°08'0 0.0
2019-Nov-15 03:28N 38°43' W 009°08'0 0.0
2019-Nov-14 23:58N 38°43' W 009°08'0 0.0
2019-Nov-14 22:29N 38°43' W 009°08'0 0.0
2019-Nov-14 19:30N 38°43' W 009°08'0 0.0
2019-Nov-14 19:00N 38°43' W 009°08'0 0.0
2019-Nov-14 18:30N 38°43' W 009°08'0 0.0
2019-Nov-14 17:59N 38°43' W 009°08'0 0.0
2019-Nov-14 17:29N 38°43' W 009°08'60 8.6
2019-Nov-14 10:30N 37°44' W 009°24'22116.5
2019-Nov-13 21:06N 36°02' W 005°18'1119.1
2019-Nov-13 20:30N 36°08' W 005°06'126 5.9
2019-Nov-12 23:09N 36°27' W 002°31'1512.8
2019-Nov-12 22:00N 36°26' W 002°13'35218.0
2019-Nov-12 02:28N 40°58' E 002°35'1818.7
2019-Nov-12 01:30N 41°13' E 002°49'2919.4
2019-Nov-11 23:59N 41°36' E 003°11'176 7.5
2019-Nov-11 00:36N 42°55' E 006°44'214.4
2019-Nov-11 00:28N 42°56' E 006°46'1414.6
2019-Nov-10 23:30N 43°05' E 007°00'1514.7
2019-Nov-10 22:30N 43°15' E 007°16'2214.7
2019-Nov-10 21:00N 43°30' E 007°38'3714.9
2019-Nov-10 18:30N 43°55' E 008°16'2510.1
2019-Nov-10 15:59N 44°19' E 008°29'0 0.0
2019-Nov-10 09:00N 44°19' E 008°29'  
Track history (hours):
 
Tides and Currents Weather Stations Pressure Air Temp Water Temp Dewpoint Dewpoint Depression Visibility Wind Speed Wind Dir Waves Ship Positions

Costa Favolosa

Last reported at 2019-Nov-20 08:29 UTC. Time now 2019-Nov-20 09:53 UTC.
Position N 44°19' E 008°29'.

Length 291 m; draft 8.3 m.

Type: Passenger vessel. MMSI: 247311100.

Date/timePositionNaut miles runAvg speedWind from/ knotsBaromVisibWave heightAir tempDewpointWater temp
2019-Nov-20 08:29N 44°19' E 008°29'0 0.0
2019-Nov-20 07:31N 44°19' E 008°29'2 2.1
2019-Nov-20 06:31N 44°18' E 008°32'3618.0
2019-Nov-20 04:30N 43°47' E 008°05'2020.3
2019-Nov-20 03:30N 43°34' E 007°45'2121.2
2019-Nov-20 02:31N 43°19' E 007°23'21421.1
2019-Nov-19 16:21N 41°33' E 003°11'3820.5
2019-Nov-19 14:30N 41°17' E 002°26'12 2.1
2019-Nov-19 08:45N 41°21' E 002°10'16 3.7
2019-Nov-19 04:30N 41°06' E 002°06'35715.5
2019-Nov-18 05:26N 36°20' W 002°28'9820.0
2019-Nov-18 00:31N 36°04' W 004°28'2120.8
2019-Nov-17 23:30N 36°02' W 004°54'1020.3
2019-Nov-17 23:00N 36°00' W 005°06'232 8.8
2019-Nov-16 20:31N 37°28' W 009°34'2221.6
2019-Nov-16 19:31N 37°50' W 009°31'1121.2
2019-Nov-16 19:01N 38°00' W 009°29'1121.3
2019-Nov-16 18:31N 38°11' W 009°28'2121.2
2019-Nov-16 17:31N 38°32' W 009°25'917.3
2019-Nov-16 17:01N 38°40' W 009°19'10 9.8
2019-Nov-16 16:01N 38°42' W 009°07'0 0.4
2019-Nov-16 15:30N 38°43' W 009°08'0 0.0
2019-Nov-16 07:29N 38°43' W 009°08'0 0.0
2019-Nov-16 06:30N 38°43' W 009°08'0 0.0
2019-Nov-16 03:30N 38°43' W 009°08'0 0.0
2019-Nov-16 03:00N 38°43' W 009°08'0 0.0
2019-Nov-16 02:30N 38°43' W 009°08'0 0.0
2019-Nov-15 22:29N 38°43' W 009°08'0 0.0
2019-Nov-15 19:58N 38°43' W 009°08'0 0.0
2019-Nov-15 18:58N 38°43' W 009°08'0 0.0
2019-Nov-15 17:58N 38°43' W 009°08'0 0.0
2019-Nov-15 15:30N 38°43' W 009°08'0 0.0
2019-Nov-15 13:30N 38°43' W 009°08'0 0.0
2019-Nov-15 11:58N 38°43' W 009°08'0 0.0
2019-Nov-15 09:30N 38°43' W 009°08'0 0.0
2019-Nov-15 08:29N 38°43' W 009°08'0 0.0
2019-Nov-15 06:58N 38°43' W 009°08'0 0.0
2019-Nov-15 04:28N 38°43' W 009°08'0 0.0
2019-Nov-15 03:28N 38°43' W 009°08'0 0.0
2019-Nov-14 23:58N 38°43' W 009°08'0 0.0
2019-Nov-14 22:29N 38°43' W 009°08'0 0.0
2019-Nov-14 19:30N 38°43' W 009°08'0 0.0
2019-Nov-14 19:00N 38°43' W 009°08'0 0.0
2019-Nov-14 18:30N 38°43' W 009°08'0 0.0
2019-Nov-14 17:59N 38°43' W 009°08'0 0.0
2019-Nov-14 17:29N 38°43' W 009°08'60 8.6
2019-Nov-14 10:30N 37°44' W 009°24'22116.5
2019-Nov-13 21:06N 36°02' W 005°18'1119.1
2019-Nov-13 20:30N 36°08' W 005°06'126 5.9
2019-Nov-12 23:09N 36°27' W 002°31'1512.8
2019-Nov-12 22:00N 36°26' W 002°13'35218.0
2019-Nov-12 02:28N 40°58' E 002°35'1818.7
2019-Nov-12 01:30N 41°13' E 002°49'2919.4
2019-Nov-11 23:59N 41°36' E 003°11'176 7.5
2019-Nov-11 00:36N 42°55' E 006°44'214.4
2019-Nov-11 00:28N 42°56' E 006°46'1414.6
2019-Nov-10 23:30N 43°05' E 007°00'1514.7
2019-Nov-10 22:30N 43°15' E 007°16'2214.7
2019-Nov-10 21:00N 43°30' E 007°38'3714.9
2019-Nov-10 18:30N 43°55' E 008°16'2510.1
2019-Nov-10 15:59N 44°19' E 008°29'0 0.0
2019-Nov-10 09:00N 44°19' E 008°29'  

Dump ship's entire track history